New London, Wisconsin
Current Conditions -  °F | °C
As of 1:55 PM on Saturday 25 Oct 2014 (Local Time) from KPCZ Reporting Station
Clear Clear  
Wind Chill: 65°   Ceiling: Unl
Heat Index: 65°   Visibility: 10mi
Dew Point: 28°   Wind: 16mph
Humidity: 25%   Direction: 300°WNW
Pressure: 29.88"   Gusts: 28mph
Location:  44.39°N, 88.74°W
Report Text: KPCZ 251855Z AUTO 30014G24KT 10SM CLR 18/M02 A2988 RMK AO2 T01821023
Loading
Personal Weather Stations






























Interactive Weather Map
Tropical Storm Tracking
New forecast layout! Learn more

10-Day Weather Forecast

Advertisements
Track Severe Weather on mobile